createdAt,value
2018-02-09T00:02:01.825Z,20.23
2018-02-09T00:04:30.694Z,18.67
2018-02-09T00:06:58.565Z,18.17
2018-02-09T00:09:26.660Z,18.87
2018-02-09T00:11:54.555Z,20.30
2018-02-09T00:14:24.644Z,18.73
2018-02-09T00:16:52.713Z,19.10
2018-02-09T00:19:20.555Z,20.23
2018-02-09T00:21:48.640Z,20.30
2018-02-09T00:24:16.681Z,19.27
2018-02-09T00:26:44.549Z,18.80
2018-02-09T00:29:12.438Z,19.43
2018-02-09T00:31:40.282Z,16.90
2018-02-09T00:34:08.186Z,20.20
2018-02-09T00:36:36.065Z,19.60
2018-02-09T00:39:04.235Z,20.93
2018-02-09T00:41:32.625Z,17.57
2018-02-09T00:44:00.542Z,20.20
2018-02-09T00:46:28.509Z,18.97
2018-02-09T00:48:57.726Z,18.70
2018-02-09T00:51:25.631Z,19.03
2018-02-09T00:53:53.510Z,18.67
2018-02-09T00:56:21.650Z,19.23
2018-02-09T00:58:49.467Z,19.67
2018-02-09T01:01:17.364Z,17.70
2018-02-09T01:03:45.486Z,17.27
2018-02-09T01:06:13.393Z,21.20
2018-02-09T01:08:42.031Z,18.80
2018-02-09T01:11:09.956Z,17.00
2018-02-09T01:13:37.817Z,19.60
2018-02-09T01:16:06.956Z,16.10
2018-02-09T01:18:34.921Z,16.20
2018-02-09T01:21:03.010Z,17.63
2018-02-09T01:23:31.072Z,17.97
2018-02-09T01:25:59.138Z,17.43
2018-02-09T01:28:27.146Z,17.77
2018-02-09T01:30:55.286Z,18.73
2018-02-09T01:33:23.255Z,16.07
2018-02-09T01:35:51.174Z,14.17
2018-02-09T01:38:19.087Z,14.77
2018-02-09T01:40:47.034Z,14.77
2018-02-09T01:43:14.894Z,14.00
2018-02-09T01:45:42.896Z,15.20
2018-02-09T01:48:10.906Z,17.00
2018-02-09T01:50:38.795Z,17.87
2018-02-09T01:53:06.907Z,17.43
2018-02-09T01:55:34.978Z,19.87
2018-02-09T01:58:02.876Z,18.47
2018-02-09T02:00:31.287Z,19.17
2018-02-09T02:02:59.309Z,18.27
2018-02-09T02:05:27.368Z,19.33
2018-02-09T02:07:55.365Z,19.40
2018-02-09T02:10:23.433Z,17.27
2018-02-09T02:12:51.296Z,16.53
2018-02-09T02:15:19.350Z,17.93
2018-02-09T02:17:47.425Z,17.40
2018-02-09T02:20:15.571Z,18.07
2018-02-09T02:22:43.440Z,16.30
2018-02-09T02:25:11.386Z,17.23
2018-02-09T02:27:39.274Z,16.07
2018-02-09T02:30:07.344Z,16.63
2018-02-09T02:32:36.059Z,15.87
2018-02-09T02:35:04.026Z,13.93
2018-02-09T02:37:31.895Z,16.67
2018-02-09T02:39:59.863Z,16.03
2018-02-09T02:42:27.934Z,15.07
2018-02-09T02:44:55.946Z,17.13
2018-02-09T02:47:24.060Z,16.23
2018-02-09T02:49:51.925Z,16.30
2018-02-09T02:52:19.813Z,16.03
2018-02-09T02:54:47.790Z,16.77
2018-02-09T02:57:15.930Z,16.03
2018-02-09T02:59:44.029Z,16.07
2018-02-09T03:02:12.099Z,14.73
2018-02-09T03:04:40.176Z,15.10
2018-02-09T03:07:08.244Z,15.37
2018-02-09T03:09:36.316Z,16.23
2018-02-09T03:12:04.041Z,15.47
2018-02-09T03:14:31.857Z,15.80
2018-02-09T03:17:00.027Z,15.57
2018-02-09T03:19:27.987Z,13.40
2018-02-09T03:21:55.820Z,14.70
2018-02-09T03:24:23.714Z,14.87
2018-02-09T03:26:51.796Z,14.73
2018-02-09T03:29:19.866Z,13.27
2018-02-09T03:31:47.665Z,14.80
2018-02-09T03:34:15.642Z,16.30
2018-02-09T03:36:43.776Z,17.83
2018-02-09T03:39:11.794Z,16.40
2018-02-09T03:41:40.328Z,16.37
2018-02-09T03:44:08.324Z,16.57
2018-02-09T03:46:36.441Z,16.50
2018-02-09T03:49:04.531Z,15.07
2018-02-09T03:51:32.622Z,17.07
2018-02-09T03:54:00.379Z,16.80
2018-02-09T03:56:28.916Z,14.57
2018-02-09T03:58:56.808Z,17.07
2018-02-09T04:01:24.669Z,14.10
2018-02-09T04:03:52.542Z,17.10
2018-02-09T04:06:20.352Z,21.00
2018-02-09T04:08:48.271Z,19.23
2018-02-09T04:11:16.071Z,20.20
2018-02-09T04:13:44.003Z,19.33
2018-02-09T04:16:12.598Z,20.30
2018-02-09T04:18:40.693Z,18.93
2018-02-09T04:21:08.703Z,17.83
2018-02-09T04:23:36.597Z,18.57
2018-02-09T04:26:04.463Z,19.13
2018-02-09T04:28:32.432Z,15.30
2018-02-09T04:31:00.539Z,17.70
2018-02-09T04:33:28.632Z,17.33
2018-02-09T04:35:56.529Z,17.50
2018-02-09T04:38:24.551Z,17.17
2018-02-09T04:40:52.611Z,15.80
2018-02-09T04:43:20.461Z,16.23
2018-02-09T04:45:48.326Z,13.40
2018-02-09T04:48:17.062Z,17.50
2018-02-09T04:50:44.931Z,15.80
2018-02-09T04:53:12.982Z,16.87
2018-02-09T04:55:40.918Z,15.93
2018-02-09T04:58:09.744Z,14.53
2018-02-09T05:00:37.614Z,15.97
2018-02-09T05:03:05.680Z,16.30
2018-02-09T05:05:33.715Z,15.07
2018-02-09T05:08:01.822Z,16.77
2018-02-09T05:10:29.665Z,14.33
2018-02-09T05:12:57.611Z,16.27
2018-02-09T05:15:25.735Z,15.83
2018-02-09T05:17:53.792Z,14.13
2018-02-09T05:20:21.777Z,15.30
2018-02-09T05:22:49.763Z,15.23
2018-02-09T05:25:17.618Z,17.17
2018-02-09T05:27:45.658Z,17.27
2018-02-09T05:30:13.959Z,18.67
2018-02-09T05:32:42.015Z,18.40
2018-02-09T05:35:10.397Z,20.70
2018-02-09T05:37:38.328Z,23.83
2018-02-09T05:40:06.349Z,20.53
2018-02-09T05:42:34.435Z,18.07
2018-02-09T05:45:02.435Z,20.27
2018-02-09T05:47:30.359Z,19.10
2018-02-09T05:49:58.431Z,18.47
2018-02-09T05:52:28.904Z,19.20
2018-02-09T05:54:57.751Z,22.87
2018-02-09T05:57:25.765Z,21.80
2018-02-09T05:59:53.609Z,19.47
2018-02-09T06:02:22.497Z,18.50
2018-02-09T06:04:50.653Z,20.07
2018-02-09T06:07:18.525Z,19.03
2018-02-09T06:09:46.876Z,14.57
2018-02-09T06:12:15.066Z,17.90
2018-02-09T06:14:42.945Z,19.33
2018-02-09T06:17:10.873Z,21.73
2018-02-09T06:19:38.745Z,24.60
2018-02-09T06:22:06.731Z,23.37
2018-02-09T06:24:34.656Z,23.30
2018-02-09T06:27:03.890Z,19.10
2018-02-09T06:29:33.218Z,22.37
2018-02-09T06:32:00.975Z,21.80
2018-02-09T06:34:29.154Z,21.20
2018-02-09T06:36:57.158Z,20.90
2018-02-09T06:39:25.071Z,23.83
2018-02-09T06:41:53.185Z,23.60
2018-02-09T06:44:21.187Z,23.80
2018-02-09T06:46:48.904Z,20.37
2018-02-09T06:49:16.970Z,21.53
2018-02-09T06:51:45.032Z,21.30
2018-02-09T06:54:12.826Z,22.30
2018-02-09T06:56:41.871Z,21.10
2018-02-09T06:59:09.577Z,24.30
2018-02-09T07:01:37.678Z,23.10
2018-02-09T07:04:05.693Z,20.83
2018-02-09T07:06:33.590Z,21.50
2018-02-09T07:09:01.502Z,24.10
2018-02-09T07:11:29.393Z,23.80
2018-02-09T07:13:57.487Z,22.87
2018-02-09T07:16:25.557Z,20.77
2018-02-09T07:18:53.628Z,21.00
2018-02-09T07:21:21.496Z,21.00
2018-02-09T07:23:49.571Z,22.80
2018-02-09T07:26:17.640Z,20.33
2018-02-09T07:28:45.662Z,20.77
2018-02-09T07:31:13.784Z,20.30
2018-02-09T07:33:41.854Z,20.53
2018-02-09T07:36:09.928Z,22.53
2018-02-09T07:38:37.800Z,22.67
2018-02-09T07:41:05.868Z,24.60
2018-02-09T07:43:33.912Z,22.73
2018-02-09T07:46:01.883Z,25.97
2018-02-09T07:48:29.878Z,25.10
2018-02-09T07:50:57.944Z,25.50
2018-02-09T07:53:25.830Z,26.70
2018-02-09T07:55:53.686Z,26.20
2018-02-09T07:58:21.789Z,26.67
2018-02-09T08:00:50.111Z,22.27
2018-02-09T08:03:17.836Z,23.73
2018-02-09T08:05:45.867Z,22.50
2018-02-09T08:08:13.814Z,21.90
2018-02-09T08:10:42.530Z,24.30
2018-02-09T08:13:10.597Z,24.80
2018-02-09T08:15:38.670Z,23.10
2018-02-09T08:18:06.724Z,25.60
2018-02-09T08:20:34.813Z,24.57
2018-02-09T08:23:03.362Z,26.57
2018-02-09T08:25:31.881Z,26.77
2018-02-09T08:27:59.821Z,23.60
2018-02-09T08:30:27.820Z,24.47
2018-02-09T08:32:55.874Z,23.43
2018-02-09T08:35:23.960Z,24.80
2018-02-09T08:37:52.851Z,26.63
2018-02-09T08:40:20.779Z,24.10
2018-02-09T08:42:48.895Z,26.80
2018-02-09T08:45:16.964Z,28.13
2018-02-09T08:47:45.041Z,26.03
2018-02-09T08:50:12.930Z,26.27
2018-02-09T08:52:40.961Z,31.20
2018-02-09T08:55:08.770Z,29.40
2018-02-09T08:57:36.608Z,27.27
2018-02-09T09:00:04.639Z,28.70
2018-02-09T09:02:33.570Z,32.00
2018-02-09T09:05:02.448Z,29.70
2018-02-09T09:07:30.536Z,30.07
2018-02-09T09:09:59.426Z,27.80
2018-02-09T09:12:27.500Z,29.93
2018-02-09T09:14:56.294Z,29.00
2018-02-09T09:17:24.051Z,27.90
2018-02-09T09:19:52.124Z,27.80
2018-02-09T09:22:19.990Z,28.53
2018-02-09T09:24:47.839Z,30.03
2018-02-09T09:27:15.740Z,28.60
2018-02-09T09:29:43.598Z,32.33
2018-02-09T09:32:11.557Z,31.67
2018-02-09T09:34:39.626Z,31.73
2018-02-09T09:37:07.705Z,29.70
2018-02-09T09:39:35.776Z,28.30
2018-02-09T09:42:03.849Z,28.00
2018-02-09T09:44:31.795Z,25.83
2018-02-09T09:46:59.786Z,27.40
2018-02-09T09:49:29.599Z,29.27
2018-02-09T09:51:57.471Z,29.13
2018-02-09T09:54:25.635Z,27.50
2018-02-09T09:56:53.924Z,28.97
2018-02-09T09:59:21.850Z,30.60
2018-02-09T10:01:50.062Z,29.13
2018-02-09T10:04:17.980Z,27.47
2018-02-09T10:06:46.070Z,29.27
2018-02-09T10:09:14.162Z,26.20
2018-02-09T10:11:42.649Z,29.00
2018-02-09T10:14:10.722Z,29.07
2018-02-09T10:16:38.801Z,28.70
2018-02-09T10:19:07.282Z,28.30
2018-02-09T10:21:35.354Z,30.10
2018-02-09T10:24:03.429Z,29.67
2018-02-09T10:26:31.498Z,27.93
2018-02-09T10:28:59.500Z,29.60
2018-02-09T10:31:27.680Z,29.10
2018-02-09T10:33:55.709Z,28.10
2018-02-09T10:36:23.650Z,27.47
2018-02-09T10:38:53.215Z,30.10
2018-02-09T10:41:21.136Z,27.67
2018-02-09T10:43:49.250Z,27.93
2018-02-09T10:46:17.194Z,25.53
2018-02-09T10:48:45.236Z,27.70
2018-02-09T10:51:13.061Z,23.60
2018-02-09T10:53:41.047Z,24.10
2018-02-09T10:56:08.992Z,25.77
2018-02-09T10:58:37.049Z,23.90
2018-02-09T11:01:05.236Z,25.07
2018-02-09T11:03:33.769Z,27.73
2018-02-09T11:06:02.632Z,26.40
2018-02-09T11:08:30.387Z,23.53
2018-02-09T11:10:58.265Z,25.67
2018-02-09T11:13:31.831Z,26.03
2018-02-09T11:16:00.635Z,26.90
2018-02-09T11:18:29.207Z,27.63
2018-02-09T11:20:57.276Z,25.70
2018-02-09T11:23:25.276Z,24.87
2018-02-09T11:25:53.895Z,27.10
2018-02-09T11:28:22.000Z,26.60
2018-02-09T11:30:50.074Z,23.60
2018-02-09T11:33:18.117Z,27.67
2018-02-09T11:35:46.219Z,25.57
2018-02-09T11:38:14.260Z,25.17
2018-02-09T11:40:41.949Z,24.90
2018-02-09T11:43:10.018Z,25.10
2018-02-09T11:45:38.082Z,23.73
2018-02-09T11:48:06.970Z,23.43
2018-02-09T11:50:35.058Z,26.60
2018-02-09T11:53:02.902Z,24.33
2018-02-09T11:55:30.999Z,24.93
2018-02-09T11:57:59.893Z,26.43
2018-02-09T12:00:27.956Z,23.87
2018-02-09T12:02:55.826Z,23.57
2018-02-09T12:05:23.893Z,23.10
2018-02-09T12:07:51.974Z,23.73
2018-02-09T12:10:20.773Z,23.30
2018-02-09T12:12:48.692Z,22.47
2018-02-09T12:15:16.658Z,22.03
2018-02-09T12:17:44.671Z,24.17
2018-02-09T12:20:12.496Z,24.20
2018-02-09T12:22:40.462Z,22.67
2018-02-09T12:25:08.580Z,25.33
2018-02-09T12:27:36.650Z,25.43
2018-02-09T12:30:05.386Z,23.90
2018-02-09T12:32:33.382Z,23.37
2018-02-09T12:35:02.815Z,23.07
2018-02-09T12:37:32.640Z,24.40
2018-02-09T12:40:00.403Z,25.17
2018-02-09T12:42:28.149Z,23.27
2018-02-09T12:44:56.326Z,23.00
2018-02-09T12:47:24.159Z,24.87
2018-02-09T12:49:52.164Z,25.30
2018-02-09T12:52:20.030Z,25.20
2018-02-09T12:54:47.964Z,24.93
2018-02-09T12:57:16.026Z,24.07
2018-02-09T12:59:44.759Z,23.40
2018-02-09T13:02:12.691Z,24.77
2018-02-09T13:04:41.440Z,22.80
2018-02-09T13:07:09.318Z,23.50
2018-02-09T13:09:37.212Z,25.23
2018-02-09T13:12:05.079Z,24.90
2018-02-09T13:14:44.622Z,27.10
2018-02-09T13:17:12.834Z,26.97
2018-02-09T13:19:40.808Z,26.20
2018-02-09T13:22:09.673Z,26.40
2018-02-09T13:24:37.611Z,26.60
2018-02-09T13:27:05.702Z,26.57
2018-02-09T13:29:33.811Z,25.60
2018-02-09T13:32:02.144Z,28.07
2018-02-09T13:34:30.034Z,25.30
2018-02-09T13:37:28.130Z,25.20
2018-02-09T13:39:56.304Z,27.73
2018-02-09T13:42:25.092Z,24.30
2018-02-09T13:44:53.869Z,25.07
2018-02-09T13:47:21.817Z,26.03
2018-02-09T13:49:49.686Z,27.27
2018-02-09T13:52:17.694Z,23.47
2018-02-09T13:54:45.659Z,27.87
2018-02-09T13:57:14.632Z,25.73
2018-02-09T13:59:43.624Z,37.40
2018-02-09T14:02:11.715Z,42.73
2018-02-09T14:04:39.735Z,32.77
2018-02-09T14:07:08.526Z,26.90
2018-02-09T14:09:37.497Z,25.07
2018-02-09T14:12:06.438Z,24.10
2018-02-09T14:14:34.430Z,26.20
2018-02-09T14:17:02.506Z,30.70
2018-02-09T14:19:31.394Z,26.70
2018-02-09T14:21:59.426Z,27.00
2018-02-09T14:24:27.526Z,24.77
2018-02-09T14:26:55.565Z,23.87
2018-02-09T14:29:23.455Z,21.10
2018-02-09T14:31:51.530Z,19.83
2018-02-09T14:34:19.617Z,17.80
2018-02-09T14:36:47.584Z,21.67
2018-02-09T14:39:15.667Z,21.47
2018-02-09T14:41:43.618Z,19.37
2018-02-09T14:44:11.459Z,20.17
2018-02-09T14:46:39.424Z,17.87
2018-02-09T14:49:07.348Z,16.90
2018-02-09T14:51:35.208Z,15.60
2018-02-09T14:54:03.025Z,18.97
2018-02-09T14:56:31.038Z,17.97
2018-02-09T14:58:59.013Z,19.67
2018-02-09T15:01:27.289Z,21.40
2018-02-09T15:03:55.943Z,20.40
2018-02-09T15:06:24.114Z,22.60
2018-02-09T15:08:51.975Z,22.53
2018-02-09T15:11:20.952Z,22.30
2018-02-09T15:13:49.069Z,23.50
2018-02-09T15:16:17.252Z,22.90
2018-02-09T15:18:45.325Z,22.67
2018-02-09T15:21:13.363Z,22.90
2018-02-09T15:23:41.434Z,22.43
2018-02-09T15:26:10.371Z,18.53
2018-02-09T15:28:38.099Z,19.83
2018-02-09T15:31:05.935Z,20.73
2018-02-09T15:33:33.758Z,20.80
2018-02-09T15:36:01.892Z,21.17
2018-02-09T15:38:29.797Z,21.97
2018-02-09T15:40:57.565Z,21.17
2018-02-09T15:43:25.337Z,20.50
2018-02-09T15:45:53.106Z,19.77
2018-02-09T15:48:20.829Z,20.40
2018-02-09T15:50:48.599Z,22.00
2018-02-09T15:53:16.273Z,20.20
2018-02-09T15:55:44.052Z,21.50
2018-02-09T15:58:11.860Z,22.40
2018-02-09T16:00:39.653Z,22.00
2018-02-09T16:03:07.536Z,19.27
2018-02-09T16:05:35.496Z,21.40
2018-02-09T16:08:03.484Z,23.40
2018-02-09T16:10:31.440Z,24.27
2018-02-09T16:12:59.150Z,22.83
2018-02-09T16:15:29.134Z,24.60
2018-02-09T16:17:57.933Z,23.03
2018-02-09T16:20:27.317Z,22.63
2018-02-09T16:22:55.610Z,23.10
2018-02-09T16:25:23.458Z,20.13
2018-02-09T16:27:51.524Z,20.90
2018-02-09T16:30:20.222Z,19.17
2018-02-09T16:32:50.937Z,18.50
2018-02-09T16:35:19.310Z,16.57
2018-02-09T16:37:48.016Z,21.80
2018-02-09T16:40:16.521Z,23.10
2018-02-09T16:42:44.990Z,23.03
2018-02-09T16:45:13.927Z,22.87
2018-02-09T16:47:43.474Z,19.00
2018-02-09T16:50:11.425Z,18.70
2018-02-09T16:52:40.619Z,19.53
2018-02-09T16:55:08.731Z,18.67
2018-02-09T16:57:36.759Z,17.27
2018-02-09T17:00:04.822Z,18.40
2018-02-09T17:02:32.639Z,20.23
2018-02-09T17:05:01.937Z,21.33
2018-02-09T17:07:29.724Z,22.33
2018-02-09T17:09:57.766Z,21.13
2018-02-09T17:12:26.445Z,20.23
2018-02-09T17:14:54.181Z,19.40
2018-02-09T17:17:21.929Z,20.27
2018-02-09T17:19:50.757Z,19.60
2018-02-09T17:22:18.771Z,20.50
2018-02-09T17:24:47.843Z,17.77
2018-02-09T17:27:15.585Z,18.37
2018-02-09T17:29:44.795Z,16.47
2018-02-09T17:32:12.879Z,21.57
2018-02-09T17:34:40.712Z,21.77
2018-02-09T17:37:08.716Z,20.90
2018-02-09T17:39:36.485Z,20.43
2018-02-09T17:42:04.359Z,17.93
2018-02-09T17:44:32.090Z,16.23
2018-02-09T17:46:59.876Z,19.70
2018-02-09T17:49:27.553Z,20.37
2018-02-09T17:51:55.341Z,21.70
2018-02-09T17:54:23.152Z,20.77
2018-02-09T17:56:50.836Z,22.33
2018-02-09T17:59:18.597Z,20.10
2018-02-09T18:01:46.324Z,18.60
2018-02-09T18:04:14.090Z,19.37
2018-02-09T18:06:42.796Z,19.87
2018-02-09T18:09:10.529Z,20.73
2018-02-09T18:11:38.360Z,20.90
2018-02-09T18:14:06.127Z,20.97
2018-02-09T18:16:33.942Z,19.20
2018-02-09T18:19:01.750Z,17.93
2018-02-09T18:21:29.541Z,20.40
2018-02-09T18:23:57.588Z,18.83
2018-02-09T18:26:25.612Z,18.17
2018-02-09T18:28:53.475Z,21.30
2018-02-09T18:31:21.284Z,17.27
2018-02-09T18:33:49.688Z,18.47
2018-02-09T18:36:17.641Z,18.07
2018-02-09T18:38:46.322Z,18.43
2018-02-09T18:41:14.046Z,19.87
2018-02-09T18:43:41.794Z,23.00
2018-02-09T18:46:09.682Z,21.50
2018-02-09T18:48:37.406Z,19.37
2018-02-09T18:51:07.066Z,19.73
2018-02-09T18:53:35.058Z,18.50
2018-02-09T18:56:02.821Z,20.23
2018-02-09T18:58:30.823Z,18.13
2018-02-09T19:00:59.514Z,17.10
2018-02-09T19:03:29.292Z,19.30
2018-02-09T19:05:57.089Z,16.70
2018-02-09T19:08:24.920Z,16.40
2018-02-09T19:10:53.650Z,19.40
2018-02-09T19:13:21.769Z,20.57
2018-02-09T19:15:49.829Z,20.87
2018-02-09T19:18:18.742Z,19.73
2018-02-09T19:20:46.559Z,18.47
2018-02-09T19:23:15.524Z,18.57
2018-02-09T19:25:43.840Z,20.30
2018-02-09T19:28:11.709Z,16.70
2018-02-09T19:30:40.662Z,17.70
2018-02-09T19:33:09.334Z,18.37
2018-02-09T19:35:39.572Z,19.37
2018-02-09T19:38:09.053Z,16.40
2018-02-09T19:40:36.875Z,18.57
2018-02-09T19:43:06.344Z,18.20
2018-02-09T19:45:34.464Z,17.27
2018-02-09T19:48:02.305Z,15.90
2018-02-09T19:50:30.105Z,17.50
2018-02-09T19:52:57.894Z,17.10
2018-02-09T19:55:26.068Z,20.73
2018-02-09T19:57:53.976Z,16.87
2018-02-09T20:00:21.789Z,17.70
2018-02-09T20:02:49.611Z,19.73
2018-02-09T20:05:17.562Z,17.70
2018-02-09T20:07:45.335Z,16.87
2018-02-09T20:10:13.176Z,19.20
2018-02-09T20:12:40.984Z,17.60
2018-02-09T20:15:08.735Z,18.63
2018-02-09T20:17:36.557Z,18.37
2018-02-09T20:20:04.428Z,19.73
2018-02-09T20:22:32.284Z,18.90
2018-02-09T20:25:00.052Z,18.47
2018-02-09T20:27:27.912Z,17.00
2018-02-09T20:29:55.642Z,19.33
2018-02-09T20:32:23.445Z,19.00
2018-02-09T20:34:51.305Z,17.93
2018-02-09T20:37:19.001Z,16.87
2018-02-09T20:39:47.328Z,21.00
2018-02-09T20:42:15.078Z,29.90
2018-02-09T20:44:42.808Z,24.90
2018-02-09T20:47:10.639Z,20.50
2018-02-09T20:49:38.442Z,18.80
2018-02-09T20:52:06.230Z,15.07
2018-02-09T20:54:34.050Z,15.03
2018-02-09T20:57:01.783Z,18.67
2018-02-09T20:59:30.553Z,16.43
2018-02-09T21:01:58.433Z,19.53
2018-02-09T21:04:26.254Z,19.03
2018-02-09T21:06:54.097Z,17.53
2018-02-09T21:09:21.878Z,19.03
2018-02-09T21:11:49.720Z,19.13
2018-02-09T21:14:17.457Z,17.30
2018-02-09T21:16:45.611Z,17.40
2018-02-09T21:19:14.344Z,18.43
2018-02-09T21:21:42.443Z,19.07
2018-02-09T21:24:10.171Z,18.27
2018-02-09T21:26:37.950Z,20.20
2018-02-09T21:29:05.751Z,19.00
2018-02-09T21:31:34.150Z,18.50
2018-02-09T21:34:01.887Z,17.63
2018-02-09T21:36:29.753Z,18.63
2018-02-09T21:38:57.616Z,19.70
2018-02-09T21:41:25.347Z,17.93
2018-02-09T21:43:53.312Z,18.13
2018-02-09T21:46:21.126Z,18.57
2018-02-09T21:48:49.058Z,20.23
2018-02-09T21:51:17.067Z,18.47
2018-02-09T21:53:44.914Z,20.00
2018-02-09T21:56:14.650Z,21.00
2018-02-09T21:58:42.469Z,18.63
2018-02-09T22:01:10.277Z,18.17
2018-02-09T22:03:38.022Z,16.70
2018-02-09T22:06:07.059Z,17.30
2018-02-09T22:08:34.725Z,16.27
2018-02-09T22:11:02.480Z,16.33
2018-02-09T22:13:30.203Z,16.70
2018-02-09T22:15:57.902Z,17.50
2018-02-09T22:18:25.656Z,14.80
2018-02-09T22:20:53.443Z,19.40
2018-02-09T22:23:21.229Z,17.40
2018-02-09T22:25:48.999Z,17.17
2018-02-09T22:28:16.863Z,18.07
2018-02-09T22:30:44.581Z,16.20
2018-02-09T22:33:12.322Z,18.70
2018-02-09T22:35:40.068Z,20.63
2018-02-09T22:38:07.794Z,20.00
2018-02-09T22:40:35.563Z,20.90
2018-02-09T22:43:03.251Z,19.80
2018-02-09T22:45:31.925Z,17.20
2018-02-09T22:47:59.646Z,18.27
2018-02-09T22:50:27.402Z,22.07
2018-02-09T22:52:55.124Z,22.67
2018-02-09T22:55:22.787Z,19.70
2018-02-09T22:57:50.540Z,24.63
2018-02-09T23:00:18.303Z,23.37
2018-02-09T23:02:46.037Z,20.23
2018-02-09T23:05:13.896Z,19.17
2018-02-09T23:07:41.590Z,20.60
2018-02-09T23:10:09.375Z,19.37
2018-02-09T23:12:37.080Z,21.10
2018-02-09T23:15:04.867Z,21.87
2018-02-09T23:17:33.231Z,20.80
2018-02-09T23:20:00.985Z,18.27
2018-02-09T23:22:28.658Z,18.90
2018-02-09T23:24:56.336Z,17.60
2018-02-09T23:27:24.054Z,18.50
2018-02-09T23:29:51.899Z,16.93
2018-02-09T23:32:19.601Z,17.23
2018-02-09T23:34:47.302Z,17.63
2018-02-09T23:37:15.043Z,18.80
2018-02-09T23:39:42.732Z,16.57
2018-02-09T23:42:10.482Z,17.53
2018-02-09T23:44:38.207Z,15.37
2018-02-09T23:47:05.976Z,14.47
2018-02-09T23:49:33.678Z,15.97
2018-02-09T23:52:01.418Z,18.73
2018-02-09T23:54:29.115Z,14.83
2018-02-09T23:56:56.861Z,16.63
2018-02-09T23:59:24.537Z,16.30
